Terminal Aerodrome Forecast
Issued by NWS

Home | Current Version | Previous Version | Text Only | Print | Product List | Glossary On
Versions: 1 2 3 4 5 6 7 8 9 10 11 12 13 14 15 16 17
000
FTUS45 KSLC 272321
TAFBCE
TAF
KBCE 272321Z 2800/2824 22011KT P6SM FEW090
     FM280300 29007KT P6SM SKC
     FM281800 22009KT P6SM FEW090=

USA.gov is the U.S. government's official web portal to all federal, state and local government web resources and services.